Wetterdaten: aktuell Mittwoch, 29.06.2022 04:50
Datum Zeit Temp. A. Feuchte A. Luftdruck Regen Wind Richtung Richtung Taupunkt Windchill Windben Empfang
29.06.2022 04:50 14,7 C 80 % 1016,6 hPa 0,0 l/m 2,7 km/h (1 Bft) O 88 11,3 C 14,7 C 10,9 km/h (2 Bft) 99 %
29.06.2022 04:40 14,7 C 80 % 1016,7 hPa 0,0 l/m 3,1 km/h (1 Bft) SO 127 11,3 C 14,7 C 8,7 km/h (2 Bft) 99 %
29.06.2022 04:30 14,7 C 80 % 1016,8 hPa 0,0 l/m 4,1 km/h (1 Bft) O-SO 117 11,3 C 14,7 C 13,0 km/h (3 Bft) 99 %
29.06.2022 04:20 14,6 C 81 % 1016,8 hPa 0,0 l/m 3,0 km/h (1 Bft) O-SO 103 11,4 C 14,6 C 8,7 km/h (2 Bft) 100 %
29.06.2022 04:10 14,6 C 81 % 1017,0 hPa 0,0 l/m 3,3 km/h (1 Bft) O-SO 105 11,4 C 14,6 C 8,7 km/h (2 Bft) 99 %
29.06.2022 04:00 14,6 C 81 % 1017,1 hPa 0,0 l/m 2,8 km/h (1 Bft) O-SO 110 11,4 C 14,6 C 8,7 km/h (2 Bft) 98 %
29.06.2022 03:50 14,6 C 81 % 1017,1 hPa 0,0 l/m 2,4 km/h (1 Bft) O-SO 120 11,4 C 14,6 C 8,7 km/h (2 Bft) 99 %
29.06.2022 03:40 14,6 C 81 % 1017,2 hPa 0,0 l/m 1,3 km/h (1 Bft) O-SO 118 11,4 C 14,6 C 6,5 km/h (2 Bft) 99 %
29.06.2022 03:30 14,6 C 81 % 1017,3 hPa 0,0 l/m 1,1 km/h (1 Bft) O-SO 119 11,4 C 14,6 C 6,5 km/h (2 Bft) 100 %
29.06.2022 03:20 14,8 C 80 % 1017,4 hPa 0,0 l/m 0,7 km/h (0 Bft) O-SO 119 11,4 C 14,8 C 4,3 km/h (1 Bft) 100 %
29.06.2022 03:10 14,9 C 80 % 1017,3 hPa 0,0 l/m 0,7 km/h (0 Bft) O-SO 119 11,5 C 14,9 C 4,3 km/h (1 Bft) 99 %
29.06.2022 03:00 15,2 C 79 % 1017,4 hPa 0,0 l/m 0,3 km/h (0 Bft) O-SO 119 11,6 C 15,2 C 4,3 km/h (1 Bft) 100 %
29.06.2022 02:50 15,3 C 78 % 1017,5 hPa 0,0 l/m 1,2 km/h (1 Bft) O-SO 119 11,5 C 15,3 C 4,3 km/h (1 Bft) 100 %
29.06.2022 02:40 15,6 C 78 % 1017,5 hPa 0,0 l/m 0,8 km/h (0 Bft) O-SO 119 11,8 C 15,6 C 4,3 km/h (1 Bft) 100 %
29.06.2022 02:30 15,7 C 77 % 1017,6 hPa 0,0 l/m 1,8 km/h (1 Bft) O-SO 119 11,7 C 15,7 C 6,5 km/h (2 Bft) 99 %
29.06.2022 02:20 15,8 C 77 % 1017,8 hPa 0,0 l/m 3,3 km/h (1 Bft) O-SO 119 11,8 C 15,8 C 8,7 km/h (2 Bft) 100 %
29.06.2022 02:10 15,9 C 76 % 1017,7 hPa 0,0 l/m 4,0 km/h (1 Bft) O-SO 115 11,7 C 15,9 C 15,2 km/h (3 Bft) 98 %
29.06.2022 02:00 16,1 C 75 % 1017,7 hPa 0,0 l/m 1,9 km/h (1 Bft) O 92 11,7 C 16,1 C 6,5 km/h (2 Bft) 100 %
29.06.2022 01:50 16,3 C 74 % 1017,8 hPa 0,0 l/m 2,2 km/h (1 Bft) O 92 11,7 C 16,3 C 6,5 km/h (2 Bft) 100 %
29.06.2022 01:40 16,6 C 73 % 1017,9 hPa 0,0 l/m 2,3 km/h (1 Bft) O-SO 105 11,7 C 16,6 C 6,5 km/h (2 Bft) 99 %
29.06.2022 01:30 16,8 C 72 % 1018,1 hPa 0,0 l/m 3,7 km/h (1 Bft) O 92 11,7 C 16,8 C 10,9 km/h (2 Bft) 100 %
29.06.2022 01:20 16,9 C 71 % 1018,2 hPa 0,0 l/m 6,5 km/h (2 Bft) O 88 11,6 C 16,9 C 19,6 km/h (3 Bft) 100 %
29.06.2022 01:10 16,9 C 71 % 1018,3 hPa 0,0 l/m 7,3 km/h (2 Bft) O-NO 71 11,6 C 16,9 C 17,4 km/h (3 Bft) 99 %
29.06.2022 01:00 16,9 C 70 % 1018,4 hPa 0,0 l/m 7,1 km/h (2 Bft) O-NO 64 11,4 C 16,9 C 19,6 km/h (3 Bft) 100 %
29.06.2022 00:50 16,9 C 69 % 1018,5 hPa 0,0 l/m 5,5 km/h (1 Bft) O-NO 59 11,2 C 16,9 C 15,2 km/h (3 Bft) 100 %
29.06.2022 00:40 17,1 C 69 % 1018,6 hPa 0,0 l/m 6,1 km/h (2 Bft) SO 126 11,4 C 17,1 C 15,2 km/h (3 Bft) 98 %
29.06.2022 00:30 17,1 C 68 % 1018,6 hPa 0,0 l/m 4,9 km/h (1 Bft) O 89 11,1 C 17,1 C 15,2 km/h (3 Bft) 100 %
29.06.2022 00:20 17,2 C 68 % 1018,7 hPa 0,0 l/m 4,4 km/h (1 Bft) O-SO 122 11,2 C 17,2 C 10,9 km/h (2 Bft) 99 %
29.06.2022 00:10 17,3 C 68 % 1018,7 hPa 0,0 l/m 4,1 km/h (1 Bft) O 98 11,3 C 17,3 C 10,9 km/h (2 Bft) 100 %
29.06.2022 00:00 17,4 C 68 % 1018,7 hPa 0,0 l/m 2,4 km/h (1 Bft) O-SO 111 11,4 C 17,4 C 6,5 km/h (2 Bft) 99 %
28.06.2022 23:50 17,6 C 68 % 1018,6 hPa 0,0 l/m 3,6 km/h (1 Bft) O 95 11,6 C 17,6 C 8,7 km/h (2 Bft) 100 %
28.06.2022 23:40 17,6 C 68 % 1018,7 hPa 0,0 l/m 3,9 km/h (1 Bft) O 84 11,6 C 17,6 C 8,7 km/h (2 Bft) 99 %
28.06.2022 23:30 17,6 C 68 % 1018,7 hPa 0,0 l/m 2,9 km/h (1 Bft) O 86 11,6 C 17,6 C 13,0 km/h (3 Bft) 99 %
28.06.2022 23:20 17,7 C 68 % 1018,6 hPa 0,0 l/m 2,5 km/h (1 Bft) O 86 11,7 C 17,7 C 6,5 km/h (2 Bft) 99 %
28.06.2022 23:10 17,9 C 68 % 1018,6 hPa 0,0 l/m 1,5 km/h (1 Bft) O 99 11,9 C 17,9 C 6,5 km/h (2 Bft) 100 %
28.06.2022 23:00 18,2 C 68 % 1018,6 hPa 0,0 l/m 1,3 km/h (1 Bft) O 101 12,2 C 18,2 C 6,5 km/h (2 Bft) 97 %
28.06.2022 22:50 18,4 C 67 % 1018,6 hPa 0,0 l/m 1,4 km/h (1 Bft) O-NO 78 12,2 C 18,4 C 6,5 km/h (2 Bft) 100 %
28.06.2022 22:40 18,7 C 66 % 1018,6 hPa 0,0 l/m 1,8 km/h (1 Bft) O 79 12,2 C 18,7 C 6,5 km/h (2 Bft) 99 %
28.06.2022 22:30 19,0 C 66 % 1018,7 hPa 0,0 l/m 1,5 km/h (1 Bft) O-NO 74 12,5 C 19,0 C 6,5 km/h (2 Bft) 99 %
28.06.2022 22:20 19,3 C 65 % 1018,8 hPa 0,0 l/m 1,2 km/h (1 Bft) O-NO 74 12,6 C 19,3 C 6,5 km/h (2 Bft) 99 %
28.06.2022 22:10 19,7 C 64 % 1018,9 hPa 0,0 l/m 1,0 km/h (0 Bft) NO 53 12,7 C 19,7 C 6,5 km/h (2 Bft) 99 %
28.06.2022 22:00 20,1 C 63 % 1018,9 hPa 0,0 l/m 1,1 km/h (1 Bft) NO 51 12,8 C 20,1 C 4,3 km/h (1 Bft) 99 %
28.06.2022 21:50 20,6 C 62 % 1018,8 hPa 0,0 l/m 0,0 km/h (0 Bft) NO 42 13,1 C 20,6 C 2,2 km/h (1 Bft) 99 %
28.06.2022 21:40 20,9 C 60 % 1018,9 hPa 0,0 l/m 0,2 km/h (0 Bft) NO 42 12,8 C 20,9 C 2,2 km/h (1 Bft) 100 %
28.06.2022 21:30 21,3 C 58 % 1018,8 hPa 0,0 l/m 0,5 km/h (0 Bft) NO 42 12,7 C 21,3 C 2,2 km/h (1 Bft) 99 %
28.06.2022 21:20 21,5 C 57 % 1018,7 hPa 0,0 l/m 1,1 km/h (1 Bft) NO 42 12,6 C 21,5 C 6,5 km/h (2 Bft) 98 %
28.06.2022 21:10 21,7 C 56 % 1018,8 hPa 0,0 l/m 2,0 km/h (1 Bft) N-NO 30 12,5 C 21,7 C 6,5 km/h (2 Bft) 100 %
28.06.2022 21:00 21,9 C 54 % 1018,8 hPa 0,0 l/m 1,1 km/h (1 Bft) SW 223 12,2 C 21,9 C 6,5 km/h (2 Bft) 100 %
28.06.2022 20:50 22,1 C 53 % 1018,9 hPa 0,0 l/m 0,6 km/h (0 Bft) SW 215 12,1 C 22,1 C 4,3 km/h (1 Bft) 99 %
28.06.2022 20:40 22,2 C 51 % 1018,9 hPa 0,0 l/m 1,1 km/h (1 Bft) SW 215 11,6 C 22,2 C 6,5 km/h (2 Bft) 99 %
28.06.2022 20:30 22,3 C 50 % 1018,8 hPa 0,0 l/m 1,1 km/h (1 Bft) SW 215 11,4 C 22,3 C 4,3 km/h (1 Bft) 99 %
28.06.2022 20:20 22,4 C 50 % 1018,8 hPa 0,0 l/m 2,1 km/h (1 Bft) SW 215 11,5 C 22,4 C 8,7 km/h (2 Bft) 100 %
28.06.2022 20:10 22,7 C 49 % 1018,7 hPa 0,0 l/m 2,2 km/h (1 Bft) SW 214 11,4 C 22,7 C 8,7 km/h (2 Bft) 100 %
28.06.2022 20:00 22,7 C 50 % 1018,7 hPa 0,0 l/m 4,1 km/h (1 Bft) W 279 11,7 C 22,7 C 8,7 km/h (2 Bft) 99 %
28.06.2022 19:50 22,8 C 50 % 1018,7 hPa 0,0 l/m 2,9 km/h (1 Bft) SW 222 11,8 C 22,8 C 8,7 km/h (2 Bft) 100 %
28.06.2022 19:40 23,1 C 47 % 1018,8 hPa 0,0 l/m 4,0 km/h (1 Bft) S-SW 212 11,2 C 23,1 C 10,9 km/h (2 Bft) 100 %
28.06.2022 19:30 23,2 C 45 % 1018,8 hPa 0,0 l/m 2,0 km/h (1 Bft) S-SW 196 10,6 C 23,2 C 8,7 km/h (2 Bft) 100 %
28.06.2022 19:20 23,7 C 45 % 1019,0 hPa 0,0 l/m 6,2 km/h (2 Bft) S-SW 200 11,1 C 23,7 C 13,0 km/h (3 Bft) 99 %
28.06.2022 19:10 23,9 C 44 % 1019,0 hPa 0,0 l/m 3,7 km/h (1 Bft) S-SW 205 10,9 C 23,9 C 8,7 km/h (2 Bft) 100 %
28.06.2022 19:00 24,2 C 44 % 1019,0 hPa 0,0 l/m 3,4 km/h (1 Bft) W-SW 238 11,2 C 24,2 C 8,7 km/h (2 Bft) 99 %
28.06.2022 18:50 24,3 C 44 % 1019,0 hPa 0,0 l/m 3,0 km/h (1 Bft) W-NW 297 11,3 C 24,3 C 8,7 km/h (2 Bft) 100 %
28.06.2022 18:40 24,3 C 44 % 1019,1 hPa 0,0 l/m 2,8 km/h (1 Bft) W-NW 283 11,3 C 24,3 C 8,7 km/h (2 Bft) 100 %
28.06.2022 18:30 23,9 C 48 % 1019,2 hPa 0,0 l/m 3,8 km/h (1 Bft) W-NW 293 12,2 C 23,9 C 13,0 km/h (3 Bft) 99 %
28.06.2022 18:20 23,4 C 48 % 1019,2 hPa 0,0 l/m 4,6 km/h (1 Bft) W-NW 287 11,8 C 23,4 C 15,2 km/h (3 Bft) 99 %
28.06.2022 18:10 23,3 C 46 % 1019,1 hPa 0,0 l/m 4,0 km/h (1 Bft) SW 222 11,0 C 23,3 C 8,7 km/h (2 Bft) 100 %
28.06.2022 18:00 23,8 C 46 % 1019,3 hPa 0,0 l/m 8,9 km/h (2 Bft) SW 217 11,5 C 23,8 C 19,6 km/h (3 Bft) 100 %
28.06.2022 17:50 24,2 C 46 % 1019,4 hPa 0,0 l/m 4,9 km/h (1 Bft) W 273 11,8 C 24,2 C 17,4 km/h (3 Bft) 99 %
28.06.2022 17:40 23,9 C 48 % 1019,6 hPa 0,0 l/m 5,0 km/h (1 Bft) W-NW 299 12,2 C 23,9 C 19,6 km/h (3 Bft) 100 %
28.06.2022 17:30 23,6 C 46 % 1019,6 hPa 0,0 l/m 5,9 km/h (2 Bft) SW 231 11,3 C 23,6 C 17,4 km/h (3 Bft) 99 %
28.06.2022 17:20 23,4 C 49 % 1019,7 hPa 0,0 l/m 5,4 km/h (1 Bft) W 268 12,1 C 23,4 C 15,2 km/h (3 Bft) 99 %
28.06.2022 17:10 23,6 C 48 % 1019,9 hPa 0,0 l/m 7,4 km/h (2 Bft) SW 234 11,9 C 23,6 C 19,6 km/h (3 Bft) 99 %
28.06.2022 17:00 23,8 C 48 % 1019,9 hPa 0,0 l/m 6,4 km/h (2 Bft) S-SW 197 12,1 C 23,8 C 19,6 km/h (3 Bft) 100 %
28.06.2022 16:50 24,1 C 47 % 1019,9 hPa 0,0 l/m 3,3 km/h (1 Bft) S-SW 200 12,1 C 24,1 C 10,9 km/h (2 Bft) 99 %
28.06.2022 16:40 23,8 C 48 % 1020,0 hPa 0,0 l/m 5,7 km/h (1 Bft) W 277 12,1 C 23,8 C 17,4 km/h (3 Bft) 100 %
28.06.2022 16:30 24,0 C 47 % 1020,1 hPa 0,0 l/m 5,4 km/h (1 Bft) W 273 12,0 C 24,0 C 15,2 km/h (3 Bft) 100 %
28.06.2022 16:20 23,9 C 49 % 1020,0 hPa 0,0 l/m 5,8 km/h (2 Bft) N-NW 333 12,5 C 23,9 C 17,4 km/h (3 Bft) 100 %
28.06.2022 16:10 23,6 C 50 % 1020,0 hPa 0,0 l/m 6,3 km/h (2 Bft) NW 323 12,6 C 23,6 C 15,2 km/h (3 Bft) 100 %
28.06.2022 16:00 23,1 C 48 % 1020,1 hPa 0,0 l/m 10,8 km/h (2 Bft) S 181 11,5 C 23,1 C 23,9 km/h (4 Bft) 99 %
28.06.2022 15:50 23,1 C 50 % 1020,3 hPa 0,0 l/m 7,1 km/h (2 Bft) S-SW 211 12,1 C 23,1 C 19,6 km/h (3 Bft) 99 %
28.06.2022 15:40 22,7 C 50 % 1020,4 hPa 0,0 l/m 5,9 km/h (2 Bft) SW 223 11,7 C 22,7 C 15,2 km/h (3 Bft) 100 %
28.06.2022 15:30 22,9 C 50 % 1020,5 hPa 0,0 l/m 8,8 km/h (2 Bft) W 273 11,9 C 22,9 C 21,7 km/h (4 Bft) 100 %
28.06.2022 15:20 22,8 C 51 % 1020,5 hPa 0,0 l/m 7,4 km/h (2 Bft) W 266 12,1 C 22,8 C 28,2 km/h (4 Bft) 99 %
28.06.2022 15:10 22,6 C 50 % 1020,6 hPa 0,0 l/m 12,6 km/h (3 Bft) W-SW 242 11,6 C 22,6 C 26,1 km/h (4 Bft) 100 %
28.06.2022 15:00 22,6 C 50 % 1020,7 hPa 0,0 l/m 11,6 km/h (2 Bft) SW 222 11,6 C 22,6 C 30,4 km/h (5 Bft) 100 %
28.06.2022 14:50 22,1 C 51 % 1020,7 hPa 0,0 l/m 4,9 km/h (1 Bft) O-SO 122 11,5 C 22,1 C 17,4 km/h (3 Bft) 99 %
28.06.2022 14:40 22,1 C 49 % 1020,7 hPa 0,0 l/m 13,8 km/h (3 Bft) S 180 10,9 C 22,1 C 23,9 km/h (4 Bft) 99 %
28.06.2022 14:30 22,3 C 50 % 1020,7 hPa 0,0 l/m 7,6 km/h (2 Bft) S-SW 194 11,4 C 22,3 C 21,7 km/h (4 Bft) 100 %
28.06.2022 14:20 22,1 C 50 % 1020,7 hPa 0,0 l/m 7,5 km/h (2 Bft) W 274 11,2 C 22,1 C 17,4 km/h (3 Bft) 100 %
28.06.2022 14:10 21,8 C 51 % 1020,8 hPa 0,0 l/m 9,6 km/h (2 Bft) W-SW 238 11,2 C 21,8 C 23,9 km/h (4 Bft) 99 %
28.06.2022 14:00 21,8 C 51 % 1020,8 hPa 0,0 l/m 12,0 km/h (2 Bft) S-SO 165 11,2 C 21,8 C 26,1 km/h (4 Bft) 100 %
28.06.2022 13:50 22,1 C 50 % 1020,9 hPa 0,0 l/m 7,3 km/h (2 Bft) W-SW 250 11,2 C 22,1 C 19,6 km/h (3 Bft) 100 %
28.06.2022 13:40 21,7 C 51 % 1021,0 hPa 0,0 l/m 10,5 km/h (2 Bft) W-NW 300 11,1 C 21,7 C 26,1 km/h (4 Bft) 100 %
28.06.2022 13:30 21,5 C 53 % 1021,0 hPa 0,0 l/m 8,0 km/h (2 Bft) S-SW 205 11,5 C 21,5 C 17,4 km/h (3 Bft) 98 %
28.06.2022 13:20 21,3 C 54 % 1021,0 hPa 0,0 l/m 7,9 km/h (2 Bft) SW 231 11,6 C 21,3 C 17,4 km/h (3 Bft) 99 %
28.06.2022 13:10 21,2 C 50 % 1021,0 hPa 0,0 l/m 11,8 km/h (2 Bft) SW 232 10,4 C 21,2 C 26,1 km/h (4 Bft) 100 %
28.06.2022 13:00 21,2 C 53 % 1021,0 hPa 0,0 l/m 12,3 km/h (3 Bft) S-SW 203 11,2 C 21,2 C 26,1 km/h (4 Bft) 100 %
28.06.2022 12:50 21,3 C 53 % 1021,0 hPa 0,0 l/m 10,2 km/h (2 Bft) S-SO 165 11,3 C 21,3 C 21,7 km/h (4 Bft) 98 %
28.06.2022 12:40 20,9 C 58 % 1021,1 hPa 0,0 l/m 8,6 km/h (2 Bft) S-SW 202 12,3 C 20,9 C 21,7 km/h (4 Bft) 99 %
28.06.2022 12:30 20,9 C 61 % 1021,2 hPa 0,0 l/m 9,7 km/h (2 Bft) S 188 13,1 C 20,9 C 19,6 km/h (3 Bft) 98 %
28.06.2022 12:20 20,6 C 62 % 1021,2 hPa 0,0 l/m 8,0 km/h (2 Bft) S-SW 200 13,1 C 20,6 C 19,6 km/h (3 Bft) 100 %
28.06.2022 12:10 20,1 C 62 % 1021,2 hPa 0,0 l/m 9,7 km/h (2 Bft) S-SW 213 12,6 C 20,1 C 21,7 km/h (4 Bft) 100 %
28.06.2022 12:00 19,6 C 62 % 1021,3 hPa 0,0 l/m 11,4 km/h (2 Bft) S-SW 207 12,1 C 19,6 C 26,1 km/h (4 Bft) 99 %
28.06.2022 11:50 19,4 C 64 % 1021,3 hPa 0,0 l/m 10,0 km/h (2 Bft) SW 223 12,4 C 19,4 C 21,7 km/h (4 Bft) 100 %
28.06.2022 11:40 19,6 C 65 % 1021,4 hPa 0,0 l/m 11,5 km/h (2 Bft) S-SW 199 12,8 C 19,6 C 19,6 km/h (3 Bft) 99 %
28.06.2022 11:30 19,5 C 65 % 1021,3 hPa 0,0 l/m 11,2 km/h (2 Bft) SW 218 12,7 C 19,5 C 23,9 km/h (4 Bft) 99 %
28.06.2022 11:20 19,6 C 69 % 1021,4 hPa 0,0 l/m 9,9 km/h (2 Bft) S 187 13,8 C 19,6 C 26,1 km/h (4 Bft) 99 %
28.06.2022 11:10 19,1 C 72 % 1021,5 hPa 0,0 l/m 8,2 km/h (2 Bft) W 275 13,9 C 19,1 C 19,6 km/h (3 Bft) 99 %
28.06.2022 11:00 18,4 C 73 % 1021,5 hPa 0,0 l/m 11,5 km/h (2 Bft) S-SW 205 13,5 C 18,4 C 23,9 km/h (4 Bft) 99 %
28.06.2022 10:50 18,4 C 72 % 1021,7 hPa 0,0 l/m 11,2 km/h (2 Bft) S-SW 200 13,3 C 18,4 C 26,1 km/h (4 Bft) 99 %
28.06.2022 10:40 18,4 C 74 % 1021,7 hPa 0,0 l/m 11,6 km/h (2 Bft) W-SW 238 13,7 C 18,4 C 23,9 km/h (4 Bft) 100 %
28.06.2022 10:30 18,0 C 78 % 1021,6 hPa 0,0 l/m 11,8 km/h (2 Bft) SW 231 14,1 C 18,0 C 19,6 km/h (3 Bft) 100 %
28.06.2022 10:20 17,7 C 77 % 1021,7 hPa 0,0 l/m 13,2 km/h (3 Bft) SW 215 13,6 C 17,7 C 26,1 km/h (4 Bft) 99 %
28.06.2022 10:10 17,8 C 80 % 1021,7 hPa 0,0 l/m 8,4 km/h (2 Bft) S-SW 209 14,3 C 17,8 C 23,9 km/h (4 Bft) 98 %
28.06.2022 10:00 17,4 C 80 % 1021,7 hPa 0,0 l/m 9,0 km/h (2 Bft) SW 231 13,9 C 17,4 C 21,7 km/h (4 Bft) 100 %
28.06.2022 09:50 17,2 C 83 % 1021,7 hPa 0,0 l/m 9,0 km/h (2 Bft) S-SW 194 14,3 C 17,2 C 15,2 km/h (3 Bft) 99 %
28.06.2022 09:40 16,8 C 84 % 1021,7 hPa 0,0 l/m 11,1 km/h (2 Bft) SW 221 14,1 C 16,8 C 17,4 km/h (3 Bft) 99 %
28.06.2022 09:30 16,4 C 87 % 1021,7 hPa 0,0 l/m 9,8 km/h (2 Bft) S-SW 211 14,2 C 16,4 C 17,4 km/h (3 Bft) 99 %
28.06.2022 09:20 16,2 C 88 % 1021,7 hPa 0,0 l/m 10,1 km/h (2 Bft) S-SW 205 14,2 C 16,2 C 17,4 km/h (3 Bft) 99 %
28.06.2022 09:10 15,9 C 89 % 1021,7 hPa 0,0 l/m 7,5 km/h (2 Bft) SW 218 14,1 C 15,9 C 15,2 km/h (3 Bft) 100 %
28.06.2022 09:00 15,8 C 91 % 1021,7 hPa 0,0 l/m 7,5 km/h (2 Bft) S-SW 205 14,3 C 15,8 C 15,2 km/h (3 Bft) 99 %
28.06.2022 08:50 15,5 C 92 % 1021,7 hPa 0,0 l/m 8,6 km/h (2 Bft) SW 225 14,2 C 15,5 C 17,4 km/h (3 Bft) 100 %
28.06.2022 08:40 15,2 C 93 % 1021,7 hPa 0,0 l/m 10,3 km/h (2 Bft) S-SW 207 14,1 C 15,2 C 17,4 km/h (3 Bft) 99 %
28.06.2022 08:30 15,1 C 94 % 1021,6 hPa 0,0 l/m 8,0 km/h (2 Bft) S-SW 213 14,1 C 15,1 C 15,2 km/h (3 Bft) 100 %
28.06.2022 08:20 14,9 C 95 % 1021,6 hPa 0,0 l/m 8,0 km/h (2 Bft) S-SW 199 14,1 C 14,9 C 19,6 km/h (3 Bft) 100 %
28.06.2022 08:10 14,6 C 95 % 1021,5 hPa 0,0 l/m 8,1 km/h (2 Bft) S 190 13,8 C 14,6 C 15,2 km/h (3 Bft) 100 %
28.06.2022 08:00 14,4 C 96 % 1021,4 hPa 0,0 l/m 8,6 km/h (2 Bft) S-SW 209 13,8 C 14,4 C 19,6 km/h (3 Bft) 99 %
28.06.2022 07:50 14,2 C 96 % 1021,4 hPa 0,0 l/m 7,9 km/h (2 Bft) S-SW 210 13,6 C 14,2 C 17,4 km/h (3 Bft) 100 %
28.06.2022 07:40 13,9 C 96 % 1021,4 hPa 0,0 l/m 7,1 km/h (2 Bft) S-SW 202 13,3 C 13,9 C 13,0 km/h (3 Bft) 99 %
28.06.2022 07:30 13,8 C 96 % 1021,4 hPa 0,0 l/m 6,3 km/h (2 Bft) S 190 13,2 C 13,8 C 10,9 km/h (2 Bft) 99 %
28.06.2022 07:20 13,8 C 96 % 1021,4 hPa 0,0 l/m 5,5 km/h (1 Bft) S 184 13,2 C 13,8 C 13,0 km/h (3 Bft) 100 %
28.06.2022 07:10 13,6 C 96 % 1021,3 hPa 0,0 l/m 4,7 km/h (1 Bft) S-SW 197 13,0 C 13,6 C 8,7 km/h (2 Bft) 99 %
28.06.2022 07:00 13,5 C 96 % 1021,3 hPa 0,0 l/m 7,7 km/h (2 Bft) S-SW 196 12,9 C 13,5 C 13,0 km/h (3 Bft) 99 %
28.06.2022 06:50 13,4 C 96 % 1021,4 hPa 0,0 l/m 8,1 km/h (2 Bft) S-SW 208 12,8 C 13,4 C 15,2 km/h (3 Bft) 97 %
28.06.2022 06:40 13,3 C 96 % 1021,3 hPa 0,0 l/m 7,4 km/h (2 Bft) S-SW 202 12,7 C 13,3 C 13,0 km/h (3 Bft) 99 %
28.06.2022 06:30 13,2 C 96 % 1021,2 hPa 0,0 l/m 8,3 km/h (2 Bft) S-SW 202 12,6 C 13,2 C 15,2 km/h (3 Bft) 99 %
28.06.2022 06:20 13,1 C 96 % 1021,1 hPa 0,0 l/m 6,5 km/h (2 Bft) S-SW 209 12,5 C 13,1 C 15,2 km/h (3 Bft) 99 %
28.06.2022 06:10 12,9 C 96 % 1021,1 hPa 0,0 l/m 4,4 km/h (1 Bft) SW 219 12,3 C 12,9 C 10,9 km/h (2 Bft) 99 %
28.06.2022 06:00 12,7 C 96 % 1020,9 hPa 0,0 l/m 4,3 km/h (1 Bft) S-SW 200 12,1 C 12,7 C 8,7 km/h (2 Bft) 99 %
28.06.2022 05:50 12,5 C 96 % 1020,9 hPa 0,0 l/m 4,1 km/h (1 Bft) S 191 11,9 C 12,5 C 8,7 km/h (2 Bft) 98 %
28.06.2022 05:40 12,4 C 96 % 1020,9 hPa 0,0 l/m 4,1 km/h (1 Bft) S-SW 196 11,8 C 12,4 C 6,5 km/h (2 Bft) 99 %
28.06.2022 05:30 12,3 C 96 % 1020,8 hPa 0,0 l/m 4,4 km/h (1 Bft) S-SW 202 11,7 C 12,3 C 8,7 km/h (2 Bft) 99 %
28.06.2022 05:20 12,3 C 96 % 1020,8 hPa 0,0 l/m 3,0 km/h (1 Bft) S 191 11,7 C 12,3 C 6,5 km/h (2 Bft) 100 %
28.06.2022 05:10 12,3 C 96 % 1020,7 hPa 0,0 l/m 3,5 km/h (1 Bft) S-SW 200 11,7 C 12,3 C 6,5 km/h (2 Bft) 100 %
28.06.2022 05:00 12,4 C 96 % 1020,7 hPa 0,2 l/m 2,8 km/h (1 Bft) S-SW 202 11,8 C 12,4 C 8,7 km/h (2 Bft) 99 %
_ Min-Zeit 05:10 18:40 04:50 - 21:50 - - 13:10 05:10 21:30 23:00
Minimum _ 12,3 C 44 % 1016,6 hPa - 0,0 km/h (0 Bft) - - 10,4 C 12,3 C 2,2 km/h (1 Bft) 97 %
_ Max-Zeit 18:50 05:00 08:40 05:00 14:40 - - 09:00 18:40 15:00 07:20
Maximum _ 24,4 C 96 % 1021,7 hPa 0,2 l/m 13,8 km/h
S (3 Bft)
- - 14,3 C 24,3 C 30,4 km/h
W-SW (5 Bft)
100 %
Durchschnitt _ 18,3 C 70 % 1019,8 hPa #0,2 l/m 5,5 km/h (1 Bft) S-SW - 12,1 C 18,3 C 13,5 km/h (3 Bft) 99 %